Antelope Valley, Nevada Weather observations

Data are for 10 minute period ending at time listed.
 Day   Time   Solar   Ave.   Ave.  Ave.  Vector  Max.   Baro.   Total    
  of    of     Rad.   Air    Rel.  Wind   Wind   Wind  Press.  Precip.   
Year   Day            Temp.  Hum.  Speed  Dir.   Gust                    
2016   (PST)  Kw/m2    F      %     mph   deg.    mph    mb.     in.     
-------------------------------------------------------------------------
 181   13:30   1.01   86.6    28    6.9   238    17.5   852.1    0.00 
 181   13:40   0.98   87.0    27    9.1   235    17.1   852.1    0.00 
 181   13:50   1.01   85.6    30    9.4   220    15.6   852.0    0.00 
 181   14:00   0.67   84.8    29    7.1   251    14.5   852.0    0.00 
 181   14:10   0.90   87.0    26    8.6   250    15.3   851.9    0.00 
 181   14:20   0.31   84.5    28    6.3   248    11.2   851.8    0.00 
 181   14:30   0.41   83.6    28    5.0   269     8.4   851.7    0.00 
 181   14:40   0.58   85.5    32    4.4   210     8.9   851.7    0.00 
 181   14:50   0.34   84.4    32    7.7   207    16.8   851.5    0.00 
 181   15:00   0.34   83.6    26    8.7   326    15.0   851.4    0.00 
 181   15:10   0.33   88.3    19    4.0    15     6.1   851.4    0.00 
 181   15:20   0.30   91.0    14    3.5   104     7.4   851.4    0.00 
 181   15:30   0.26   86.9    34    3.6   189     5.3   851.4    0.00 
 181   15:40   0.24   86.4    25    2.9   243     4.9   851.3    0.00 
 181   15:50   0.20   85.1    32    3.5   253     7.8   851.2    0.00 
 181   16:00   0.18   82.5    42    3.2   223     6.4   851.1    0.00 
 181   16:10   0.18   81.2    41    4.7   225     6.4   851.0    0.00 
 181   16:20   0.18   85.2    22    4.4   174    15.3   850.8    0.00 
 181   16:30   0.18   87.5    20    0.8   294     2.6   850.9    0.00 
 181   16:40   0.20   88.7    16    1.3   246     4.7   850.9    0.00 
 181   16:50   0.25   86.2    28    2.0   206     5.8   850.8    0.00 
 181   17:00   0.30   86.9    27    3.8   311     7.4   850.7    0.00 
 181   17:10   0.24   86.2    28    2.8   337     5.9   850.7    0.00 
 181   17:20   0.16   85.3    29    1.4   285     5.0   850.8    0.00 
 181   17:30   0.13   87.8    19    1.2    89     2.2   850.7    0.00 
 181   17:40   0.09   87.3    23    2.4    84     4.2   850.8    0.00 
 181   17:50   0.18   88.8    16    3.3    50     5.1   850.7    0.00 
 181   18:00   0.14   88.7    18    3.2    58     4.0   850.8    0.00 
 181   18:10   0.12   87.7    20    3.0    59     4.1   850.9    0.00 
 181   18:20   0.07   86.4    21    2.8    60     3.5   850.9    0.00 
 181   18:30   0.05   84.7    23    2.8    85     3.6   850.9    0.00 
 181   18:40   0.03   82.4    28    2.0   101     2.9   850.8    0.00 
 181   18:50   0.02   81.0    26    3.0   110     3.7   850.7    0.00 
 181   19:00   0.02   82.6    24    0.8    91     1.7   850.7    0.00 
 181   19:10   0.01   79.2    27    1.5    68     4.7   850.7    0.00 
 181   19:20   0.01   77.0    27    1.6    84     3.2   850.6    0.00 
 181   19:30   0.01   73.4    35    3.1   115     4.2   850.5    0.00 
 181   19:40   0.00   70.6    41    0.9   120     2.3   850.5    0.00 
 181   19:50   0.00   68.3    50    2.8   135     6.1   850.5    0.00 
 181   20:00   0.00   66.7    50    5.0   196     6.3   850.6    0.00 
 181   20:10   0.00   65.7    57    4.0   246     5.3   850.9    0.00 
 181   20:20   0.00   67.1    47    3.3   170     4.2   851.0    0.00 
 181   20:30   0.00   68.4    46    1.9    11     5.2   851.2    0.00 
 181   20:40   0.00   65.2    52    1.0    44     2.3   851.2    0.00 
 181   20:50   0.00   66.5    47    2.1    18     4.1   851.2    0.00 
 181   21:00   0.00   67.8    39    2.0    66     3.0   851.3    0.00 
 181   21:10   0.00   64.4    58    5.2   190     6.9   851.3    0.00 
 181   21:20   0.00   63.5    53    4.7   157     5.9   851.3    0.00 
 181   21:30   0.00   64.2    44    5.3   133     6.2   851.3    0.00 
 181   21:40   0.00   62.7    51    3.1   254     5.1   851.3    0.00 
 181   21:50   0.00   66.3    41    2.4   282     3.7   851.2    0.00 
 181   22:00   0.00   63.0    54    4.3   298     5.6   851.3    0.00 
 181   22:10   0.00   63.9    47    5.3   297     7.5   851.5    0.00 
 181   22:20   0.00   67.5    39    2.8   235     7.3   851.4    0.00 
 181   22:30   0.00   64.7    50    5.0   147     8.0   851.4    0.00 
 181   22:40   0.00   64.7    46    6.5   129     8.3   851.4    0.00 
 181   22:50   0.00   66.3    37    5.1   122     6.9   851.3    0.00 
 181   23:00   0.00   67.8    36    1.3   134     3.7   851.3    0.00 
 181   23:10   0.00   67.0    37    2.3   188     4.0   851.2    0.00 
 181   23:20   0.00   66.8    38    4.2   261     8.0   851.3    0.00 
 181   23:30   0.00   63.2    47    2.3   232     5.7   851.5    0.00 
 181   23:40   0.00   62.0    48    3.5   103     5.2   851.6    0.00 
 181   23:50   0.00   61.6    51    4.4   112     6.6   851.6    0.00 
 182    0:00   0.00   60.6    54    4.5   134     5.8   851.5    0.00 
 182    0:10   0.00   60.3    53    2.1   242     4.2   851.5    0.00 
 182    0:20   0.00   60.5    58    1.7   284     3.5   851.6    0.00 
 182    0:30   0.00   59.3    58    3.0   218     4.9   851.7    0.00 
 182    0:40   0.00   57.9    62    2.9   214     5.0   851.8    0.00 
 182    0:50   0.00   56.5    62    3.6   254     5.0   852.0    0.00 
 182    1:00   0.00   56.2    65    3.6   197     4.8   851.9    0.00 
 182    1:10   0.00   55.2    63    0.3   215     2.6   852.0    0.00 
 182    1:20   0.00   58.2    54    3.4   194     4.6   852.0    0.00 
 182    1:30   0.00   59.1    47    4.9   165     6.9   851.9    0.00 
 182    1:40   0.00   58.2    49    4.7   158     5.3   851.9    0.00 
 182    1:50   0.00   57.8    51    3.9   174     5.2   851.9    0.00 
 182    2:00   0.00   57.8    50    3.0   163     3.9   852.0    0.00 
 182    2:10   0.00   59.3    40    1.8   203     2.6   852.0    0.00 
 182    2:20   0.00   56.5    55    4.2   249     5.6   851.9    0.00 
 182    2:30   0.00   54.1    62    4.0   226     5.8   852.0    0.00 
 182    2:40   0.00   54.1    61    3.8   220     5.2   852.0    0.00 
 182    2:50   0.00   54.0    60    4.0   230     5.0   852.0    0.00 
 182    3:00   0.00   52.6    65    3.1   245     4.3   852.0    0.00 
 182    3:10   0.00   52.9    64    2.3   259     4.4   852.0    0.00 
 182    3:20   0.00   52.9    60    4.8   250     6.1   852.0    0.00 
 182    3:30   0.00   52.5    60    5.1   251     6.4   852.2    0.00 
 182    3:40   0.00   52.6    60    5.2   250     6.1   852.2    0.00 
 182    3:50   0.00   52.2    62    5.5   237     7.0   852.2    0.00 
 182    4:00   0.00   52.2    62    5.6   203     6.9   852.2    0.00 
 182    4:10   0.00   50.9    65    5.6   184     6.4   852.2    0.00 
 182    4:20   0.00   52.6    58    5.9   197     6.8   852.3    0.00 
 182    4:30   0.00   52.0    61    4.8   212     6.0   852.4    0.00 
 182    4:40   0.01   50.7    66    3.0   215     5.2   852.5    0.00 
 182    4:50   0.01   50.1    68    1.2   178     3.5   852.5    0.00 
 182    5:00   0.04   51.6    63    4.0   183     4.8   852.5    0.00 
 182    5:10   0.07   52.8    62    2.7   172     4.5   852.7    0.00 
 182    5:20   0.11   55.0    59    4.2   190     5.3   852.7    0.00 
 182    5:30   0.14   55.9    63    3.5   204     5.3   852.7    0.00 
 182    5:40   0.15   58.0    65    1.9   188     2.8   852.8    0.00 
 182    5:50   0.12   59.8    59    2.5   166     4.1   852.9    0.00 
 182    6:00   0.19   62.4    46    2.7   154     4.4   852.9    0.00 
 182    6:10   0.24   64.9    51    3.1   178     3.9   852.9    0.00 
 182    6:20   0.26   66.1    55    3.2   194     4.7   852.9    0.00 
 182    6:30   0.28   67.9    53    2.9   176     4.2   852.8    0.00 
 182    6:40   0.32   68.9    53    3.1   189     4.5   852.8    0.00 
 182    6:50   0.35   69.7    52    2.8   208     4.1   852.8    0.00 
 182    7:00   0.28   69.5    53    2.6   209     3.5   852.7    0.00 
 182    7:10   0.41   70.0    55    2.6   204     3.7   852.7    0.00 
 182    7:20   0.41   72.1    53    2.6   195     3.7   852.7    0.00 
 182    7:30   0.47   72.6    49    2.9   211     4.3   852.7    0.00 
 182    7:40   0.49   73.3    46    2.2   228     3.8   852.5    0.00 
 182    7:50   0.52   74.4    46    2.0   244     3.1   852.5    0.00 
 182    8:00   0.55   75.5    45    2.4   235     3.7   852.4    0.00 
 182    8:10   0.57   76.0    44    3.4   232     5.3   852.4    0.00 
 182    8:20   0.61   76.9    41    3.1   216     5.0   852.3    0.00 
 182    8:30   0.64   77.8    43    3.2   225     5.9   852.3    0.00 
 182    8:40   0.64   77.8    42    2.8   215     4.5   852.3    0.00 
 182    8:50   0.68   79.6    37    2.5   223     3.7   852.3    0.00 
 182    9:00   0.71   81.1    36    3.0   199     4.9   852.4    0.00 
 182    9:10   0.73   81.4    35    2.2   230     3.7   852.4    0.00 
 182    9:20   0.77   82.6    29    2.0   232     4.2   852.6    0.00 
 182    9:30   0.79   83.3    25    2.2   257     5.3   852.6    0.00 
 182    9:40   0.81   84.6    28    2.2   214     4.2   852.6    0.00 
 182    9:50   0.83   85.3    23    2.4   213     3.9   852.6    0.00 
 182   10:00   0.86   84.8    27    2.4   222     4.5   852.6    0.00 
 182   10:10   0.87   86.4    24    1.7   190     3.6   852.6    0.00 
 182   10:20   0.89   87.9    21    1.3   201     3.7   852.6    0.00 
 182   10:30   0.94   87.4    22    1.6   232     3.0   852.6    0.00 
 182   10:40   0.99   88.3    22    2.0   197     3.1   852.5    0.00 
 182   10:50   0.90   88.4    19    1.7   214     3.2   852.4    0.00 
 182   11:00   1.06   89.0    22    1.6   209     3.3   852.3    0.00 
 182   11:10   0.59   89.4    16    2.1   176     5.2   852.3    0.00 
 182   11:20   0.65   87.9    24    1.5   224     2.7   852.2    0.00 
 182   11:30   0.79   87.3    23    1.7   230     3.4   852.1    0.00 
 182   11:40   1.02   89.9    19    1.0   185     2.6   852.0    0.00 
 182   11:50   1.07   91.7    17    0.9   178     2.9   852.0    0.00 
 182   12:00   1.01   92.4    12    1.9   128     5.0   851.8    0.00 
 182   12:10   0.63   90.5    21    1.9   206     5.6   851.6    0.00 
 182   12:20   0.94   88.5    18    2.8   176     6.3   851.6    0.00 
 182   12:30   0.99   89.2    20    2.7   154     5.0   851.5    0.00 
 182   12:40   0.99   88.7    24    2.8   201     4.7   851.3    0.00 
 182   12:50   0.97   90.9    16    2.6   169     6.5   851.2    0.00 
 182   13:00   0.94   89.1    30    3.8   197     6.9   851.0    0.00 
 182   13:10   0.94   88.1    31    3.8   190     8.3   850.9    0.00 
 182   13:20   0.91   89.0    32    3.8   211     9.3   850.8    0.00 

Return to Antelope Valley graphs page.


Western Regional Climate Center,wrcc@dri.edu